Rechercher aéroport 
image banner adimage banner ad
image banner ad

EKSO - Svinoy

Situé à Svinoy, Faroe Islands

ICAO - EKSO, IATA -

Données fournies par Airmate  

Information générale

Coordonnées: N62°16'36" W6°20'29"
Élévation : 30 feet MSL.
Variation magnétique : -8.0° East
Voir autres Aéroports à (unassigned)

Données opérationnelles

Accessible au public
Heure actuelle UTC:
Heure actuelle locale:
Météo à : EKVG - Vagar ( 54 km )
METAR: EKVG 280720Z AUTO 03007KT 9999 BKN027/// M01/M05 Q1008
TAF: TAF EKVG 280516Z 2806/2815 01008KT 9999 FEW022 BKN030 TEMPO 2810/2815 3000 -SHSN BKN015TCU
Voir NOTAMs / SUP AIP / TFR affectant cet aéroport [VIEW]
Fréquences de communication: [VIEW]

Pistes:

Coordonnées de l'aéroport

Adresse: Svinoy Faroe Islands

Vue satellite de EKSO